createdAt,value
2019-03-03T00:01:15.882Z,87.64
2019-03-03T00:03:48.905Z,88.04
2019-03-03T00:06:21.854Z,88.16
2019-03-03T00:08:54.722Z,88.02
2019-03-03T00:11:27.696Z,87.77
2019-03-03T00:14:01.427Z,87.75
2019-03-03T00:16:34.344Z,87.90
2019-03-03T00:19:07.297Z,87.93
2019-03-03T00:21:40.304Z,87.95
2019-03-03T00:24:13.326Z,87.97
2019-03-03T00:26:46.261Z,87.94
2019-03-03T00:29:19.086Z,87.96
2019-03-03T00:31:51.974Z,87.81
2019-03-03T00:34:24.908Z,87.81
2019-03-03T00:37:19.851Z,87.83
2019-03-03T00:40:26.957Z,87.89
2019-03-03T00:43:07.397Z,88.00
2019-03-03T00:45:51.885Z,88.47
2019-03-03T00:48:52.851Z,88.46
2019-03-03T00:51:43.601Z,88.62
2019-03-03T00:54:35.279Z,88.51
2019-03-03T00:57:26.899Z,88.29
2019-03-03T01:00:06.958Z,88.08
2019-03-03T01:02:52.160Z,88.01
2019-03-03T01:05:46.425Z,87.75
2019-03-03T01:08:36.885Z,87.61
2019-03-03T01:11:43.932Z,87.39
2019-03-03T01:14:47.599Z,86.78
2019-03-03T01:17:51.523Z,86.70
2019-03-03T01:20:43.338Z,86.74
2019-03-03T01:23:44.052Z,86.51
2019-03-03T01:26:16.951Z,85.97
2019-03-03T01:28:49.055Z,86.73
2019-03-03T01:31:25.331Z,86.68
2019-03-03T01:33:58.187Z,84.21
2019-03-03T01:36:31.105Z,82.18
2019-03-03T01:39:05.285Z,80.99
2019-03-03T01:41:38.151Z,81.56
2019-03-03T01:44:11.001Z,81.65
2019-03-03T01:46:43.984Z,81.82
2019-03-03T01:49:16.924Z,81.48
2019-03-03T01:51:49.878Z,81.74
2019-03-03T01:54:22.731Z,79.97
2019-03-03T01:56:55.638Z,80.30
2019-03-03T01:59:28.502Z,79.38
2019-03-03T02:02:01.617Z,80.20
2019-03-03T02:04:34.595Z,80.09
2019-03-03T02:07:07.679Z,79.92
2019-03-03T02:09:40.654Z,80.10
2019-03-03T02:12:13.584Z,78.89
2019-03-03T02:14:46.473Z,80.31
2019-03-03T02:17:19.454Z,79.95
2019-03-03T02:19:52.295Z,80.23
2019-03-03T02:22:25.250Z,80.64
2019-03-03T02:24:58.166Z,80.76
2019-03-03T02:27:31.168Z,80.38
2019-03-03T02:30:05.596Z,80.58
2019-03-03T02:32:38.507Z,81.41
2019-03-03T02:35:11.674Z,81.24
2019-03-03T02:37:44.528Z,80.35
2019-03-03T02:40:18.443Z,79.99
2019-03-03T02:42:51.667Z,80.14
2019-03-03T02:45:24.965Z,80.88
2019-03-03T02:47:57.941Z,81.26
2019-03-03T02:50:30.873Z,81.04
2019-03-03T02:53:03.842Z,80.20
2019-03-03T02:55:36.897Z,80.80
2019-03-03T02:58:09.862Z,80.74
2019-03-03T03:00:51.878Z,81.68
2019-03-03T03:03:24.992Z,82.41
2019-03-03T03:06:16.680Z,82.41
2019-03-03T03:09:26.469Z,81.72
2019-03-03T03:12:18.268Z,82.10
2019-03-03T03:15:08.872Z,82.42
2019-03-03T03:18:00.999Z,82.61
2019-03-03T03:20:58.583Z,83.84
2019-03-03T03:23:53.418Z,84.86
2019-03-03T03:26:45.171Z,85.03
2019-03-03T03:29:36.874Z,85.20
2019-03-03T03:32:28.567Z,84.53
2019-03-03T03:35:23.246Z,84.26
2019-03-03T03:38:13.691Z,84.17
2019-03-03T03:41:23.929Z,83.90
2019-03-03T03:44:15.564Z,84.04
2019-03-03T03:47:07.278Z,85.18
2019-03-03T03:49:49.181Z,85.68
2019-03-03T03:52:31.909Z,86.17
2019-03-03T03:55:39.646Z,86.88
2019-03-03T03:58:46.617Z,86.86
2019-03-03T04:01:50.057Z,86.14
2019-03-03T04:04:33.710Z,85.60
2019-03-03T04:07:28.804Z,83.95
2019-03-03T04:10:06.418Z,83.96
2019-03-03T04:13:16.590Z,83.58
2019-03-03T04:16:11.200Z,83.88
2019-03-03T04:19:02.889Z,83.96
2019-03-03T04:21:45.020Z,82.45
2019-03-03T04:24:35.321Z,81.60
2019-03-03T04:27:33.373Z,81.18
2019-03-03T04:30:30.431Z,80.44
2019-03-03T04:33:24.605Z,79.55
2019-03-03T04:36:16.331Z,78.98
2019-03-03T04:39:06.570Z,78.11
2019-03-03T04:41:56.875Z,79.49
2019-03-03T04:44:47.280Z,79.63
2019-03-03T04:47:37.708Z,79.85
2019-03-03T04:50:19.475Z,81.25
2019-03-03T04:53:05.310Z,82.00
2019-03-03T04:55:50.654Z,82.66
2019-03-03T04:58:42.298Z,82.80
2019-03-03T05:01:25.350Z,82.07
2019-03-03T05:04:15.579Z,81.76
2019-03-03T05:07:05.849Z,82.65
2019-03-03T05:09:57.379Z,82.46
2019-03-03T05:12:57.502Z,82.40
2019-03-03T05:16:07.408Z,83.49
2019-03-03T05:18:48.557Z,84.39
2019-03-03T05:21:21.498Z,84.98
2019-03-03T05:23:54.457Z,85.08
2019-03-03T05:26:27.616Z,85.28
2019-03-03T05:29:00.498Z,85.47
2019-03-03T05:31:33.294Z,85.14
2019-03-03T05:34:06.136Z,84.56
2019-03-03T05:36:39.013Z,84.89
2019-03-03T05:39:11.930Z,84.63
2019-03-03T05:41:44.820Z,84.15
2019-03-03T05:44:17.732Z,84.03
2019-03-03T05:46:50.510Z,84.02
2019-03-03T05:49:23.520Z,84.78
2019-03-03T05:51:56.501Z,85.71
2019-03-03T05:54:29.451Z,86.15
2019-03-03T05:57:02.421Z,86.46
2019-03-03T05:59:35.415Z,85.98
2019-03-03T06:02:08.397Z,86.08
2019-03-03T06:04:40.634Z,85.75
2019-03-03T06:07:13.600Z,85.23
2019-03-03T06:09:46.706Z,85.41
2019-03-03T06:12:19.714Z,86.14
2019-03-03T06:14:52.762Z,86.86
2019-03-03T06:17:25.670Z,87.64
2019-03-03T06:19:58.805Z,87.54
2019-03-03T06:22:31.757Z,87.23
2019-03-03T06:25:05.006Z,86.93
2019-03-03T06:27:38.015Z,87.08
2019-03-03T06:30:13.345Z,86.19
2019-03-03T06:32:46.301Z,86.34
2019-03-03T06:35:19.281Z,86.75
2019-03-03T06:37:52.174Z,86.87
2019-03-03T06:40:25.144Z,86.04
2019-03-03T06:42:58.056Z,85.11
2019-03-03T06:45:30.977Z,85.61
2019-03-03T06:48:03.938Z,85.07
2019-03-03T06:50:36.805Z,84.45
2019-03-03T06:53:09.771Z,83.85
2019-03-03T06:55:42.714Z,83.68
2019-03-03T06:58:15.977Z,83.88
2019-03-03T07:00:48.851Z,84.42
2019-03-03T07:03:21.699Z,84.57
2019-03-03T07:05:54.540Z,84.44
2019-03-03T07:08:27.398Z,84.56
2019-03-03T07:11:00.246Z,85.07
2019-03-03T07:13:33.143Z,84.83
2019-03-03T07:16:06.339Z,84.16
2019-03-03T07:18:39.268Z,84.02
2019-03-03T07:21:12.370Z,83.88
2019-03-03T07:23:45.404Z,83.68
2019-03-03T07:26:18.442Z,83.57
2019-03-03T07:28:52.437Z,83.00
2019-03-03T07:31:25.295Z,82.64
2019-03-03T07:34:01.135Z,83.31
2019-03-03T07:36:33.962Z,81.77
2019-03-03T07:39:17.592Z,80.02
2019-03-03T07:41:50.591Z,79.44
2019-03-03T07:44:23.462Z,77.63
2019-03-03T07:46:56.307Z,76.82
2019-03-03T07:49:29.252Z,76.65
2019-03-03T07:52:02.127Z,75.51
2019-03-03T07:54:35.175Z,74.79
2019-03-03T07:57:08.119Z,73.37
2019-03-03T07:59:41.232Z,70.92
2019-03-03T08:02:14.182Z,73.97
2019-03-03T08:04:47.141Z,75.16
2019-03-03T08:07:20.045Z,70.13
2019-03-03T08:09:53.046Z,65.31
2019-03-03T08:12:26.458Z,62.23
2019-03-03T08:14:59.431Z,56.62
2019-03-03T08:17:32.380Z,58.64
2019-03-03T08:20:06.988Z,51.69
2019-03-03T08:22:42.022Z,50.35
2019-03-03T08:25:15.060Z,50.39
2019-03-03T08:27:47.962Z,51.54
2019-03-03T08:30:21.055Z,50.13
2019-03-03T08:32:54.013Z,48.90
2019-03-03T08:35:27.484Z,50.73
2019-03-03T08:38:00.456Z,47.13
2019-03-03T08:40:33.387Z,47.93
2019-03-03T08:43:25.492Z,44.03
2019-03-03T08:46:12.476Z,43.92
2019-03-03T08:49:13.205Z,48.24
2019-03-03T08:52:00.861Z,42.74
2019-03-03T08:54:51.296Z,46.93
2019-03-03T08:57:52.341Z,48.01
2019-03-03T09:00:44.725Z,47.28
2019-03-03T09:03:39.307Z,48.38
2019-03-03T09:06:42.969Z,46.70
2019-03-03T09:15:16.926Z,40.60
2019-03-03T09:18:08.760Z,40.08
2019-03-03T09:20:59.330Z,40.41
2019-03-03T09:23:41.783Z,40.79
2019-03-03T09:26:32.157Z,39.36
2019-03-03T09:29:18.266Z,41.58
2019-03-03T09:31:58.734Z,40.26
2019-03-03T09:35:00.276Z,41.62
2019-03-03T09:37:54.809Z,44.43
2019-03-03T09:40:36.757Z,44.81
2019-03-03T09:43:37.658Z,46.77
2019-03-03T09:46:16.778Z,45.13
2019-03-03T09:48:58.736Z,43.42
2019-03-03T09:51:50.654Z,42.97
2019-03-03T09:54:51.766Z,42.46
2019-03-03T09:57:41.609Z,41.67
2019-03-03T10:00:34.596Z,42.28
2019-03-03T10:03:35.538Z,38.61
2019-03-03T10:06:26.001Z,40.91
2019-03-03T10:09:16.870Z,39.92
2019-03-03T10:12:04.391Z,44.50
2019-03-03T10:14:43.270Z,42.81
2019-03-03T10:17:41.176Z,38.75
2019-03-03T10:20:39.713Z,44.29
2019-03-03T10:23:30.360Z,44.29
2019-03-03T10:26:20.907Z,46.77
2019-03-03T10:29:11.453Z,47.20
2019-03-03T10:32:04.770Z,47.86
2019-03-03T10:35:14.560Z,44.63
2019-03-03T10:38:21.354Z,47.58
2019-03-03T10:41:18.979Z,46.89
2019-03-03T10:44:13.572Z,48.05
2019-03-03T10:46:54.206Z,50.25
2019-03-03T10:49:34.875Z,49.00
2019-03-03T10:52:12.885Z,48.28
2019-03-03T10:55:13.726Z,44.13
2019-03-03T10:58:01.530Z,44.16
2019-03-03T11:00:50.816Z,45.02
2019-03-03T11:03:54.802Z,43.58
2019-03-03T11:06:43.993Z,41.70
2019-03-03T11:09:42.739Z,46.10
2019-03-03T11:12:43.989Z,45.59
2019-03-03T11:15:36.015Z,46.15
2019-03-03T11:18:39.090Z,42.60
2019-03-03T11:21:29.277Z,45.54
2019-03-03T11:24:21.086Z,45.95
2019-03-03T11:27:16.078Z,43.56
2019-03-03T11:30:17.907Z,45.86
2019-03-03T11:33:09.742Z,44.16
2019-03-03T11:36:07.898Z,42.54
2019-03-03T11:38:59.702Z,43.85
2019-03-03T11:41:51.537Z,47.55
2019-03-03T11:44:58.346Z,47.76
2019-03-03T11:47:51.621Z,50.39
2019-03-03T11:50:46.426Z,48.71
2019-03-03T11:53:38.157Z,46.06
2019-03-03T11:56:28.499Z,45.17
2019-03-03T11:59:26.041Z,45.32
2019-03-03T12:02:16.410Z,43.32
2019-03-03T12:05:20.598Z,43.10
2019-03-03T12:08:21.595Z,43.23
2019-03-03T12:14:29.237Z,44.35
2019-03-03T12:17:21.125Z,44.17
2019-03-03T12:20:19.002Z,45.90
2019-03-03T12:23:10.814Z,46.45
2019-03-03T12:26:05.565Z,46.06
2019-03-03T12:29:03.237Z,46.08
2019-03-03T12:31:46.403Z,45.45
2019-03-03T12:34:47.495Z,42.96
2019-03-03T12:37:34.754Z,43.42
2019-03-03T12:40:26.979Z,39.14
2019-03-03T12:43:17.628Z,42.32
2019-03-03T12:46:12.445Z,41.80
2019-03-03T12:48:55.321Z,41.09
2019-03-03T12:51:43.148Z,42.63
2019-03-03T12:54:38.036Z,42.51
2019-03-03T12:57:22.241Z,42.94
2019-03-03T13:00:19.763Z,42.83
2019-03-03T13:03:26.573Z,43.09
2019-03-03T13:06:08.826Z,43.99
2019-03-03T13:09:07.686Z,45.80
2019-03-03T13:11:59.436Z,45.58
2019-03-03T13:14:50.277Z,45.28
2019-03-03T13:17:48.114Z,45.93
2019-03-03T13:20:27.408Z,45.19
2019-03-03T13:23:08.679Z,43.92
2019-03-03T13:26:13.638Z,41.60
2019-03-03T13:29:14.618Z,42.86
2019-03-03T13:32:12.270Z,40.61
2019-03-03T13:35:02.822Z,41.25
2019-03-03T13:38:03.809Z,40.72
2019-03-03T13:40:56.513Z,42.95
2019-03-03T13:43:31.703Z,43.79
2019-03-03T13:46:05.004Z,45.28
2019-03-03T13:48:37.968Z,44.96
2019-03-03T13:51:11.143Z,43.10
2019-03-03T13:53:44.090Z,40.20
2019-03-03T13:56:17.161Z,38.29
2019-03-03T13:58:50.282Z,32.82
2019-03-03T14:01:23.286Z,33.11
2019-03-03T14:03:56.367Z,32.69
2019-03-03T14:06:29.481Z,34.28
2019-03-03T14:09:02.514Z,36.10
2019-03-03T14:11:35.452Z,33.18
2019-03-03T14:14:10.861Z,37.38
2019-03-03T14:16:43.825Z,38.63
2019-03-03T14:19:17.796Z,36.40
2019-03-03T14:21:50.910Z,36.80
2019-03-03T14:24:23.880Z,38.04
2019-03-03T14:26:56.953Z,39.05
2019-03-03T14:29:30.030Z,37.16
2019-03-03T14:32:03.075Z,39.01
2019-03-03T14:34:35.868Z,39.51
2019-03-03T14:37:09.441Z,37.91
2019-03-03T14:39:42.480Z,37.04
2019-03-03T14:42:15.464Z,39.20
2019-03-03T14:44:48.488Z,37.73
2019-03-03T14:47:21.522Z,39.29
2019-03-03T14:49:54.563Z,43.57
2019-03-03T14:52:27.647Z,40.46
2019-03-03T14:55:00.546Z,44.19
2019-03-03T14:57:33.528Z,43.96
2019-03-03T15:00:16.192Z,44.25
2019-03-03T15:02:48.667Z,46.01
2019-03-03T15:05:21.827Z,45.54
2019-03-03T15:07:54.998Z,46.10
2019-03-03T15:10:28.179Z,45.92
2019-03-03T15:13:00.788Z,43.41
2019-03-03T15:15:34.956Z,46.41
2019-03-03T15:18:08.339Z,42.83
2019-03-03T15:20:41.324Z,43.13
2019-03-03T15:23:14.508Z,43.81
2019-03-03T15:25:47.673Z,44.30
2019-03-03T15:28:20.787Z,45.99
2019-03-03T15:30:53.818Z,45.32
2019-03-03T15:33:26.872Z,43.79
2019-03-03T15:36:01.152Z,44.38
2019-03-03T15:38:34.074Z,45.30
2019-03-03T15:41:07.006Z,44.83
2019-03-03T15:43:40.071Z,44.50
2019-03-03T15:46:13.107Z,43.04
2019-03-03T15:48:46.026Z,43.98
2019-03-03T15:51:19.060Z,44.56
2019-03-03T15:53:52.322Z,45.02
2019-03-03T15:56:25.373Z,44.71
2019-03-03T15:58:58.407Z,45.75
2019-03-03T16:01:31.526Z,45.58
2019-03-03T16:04:04.459Z,42.96
2019-03-03T16:06:37.552Z,44.17
2019-03-03T16:09:16.982Z,43.76
2019-03-03T16:11:49.853Z,44.45
2019-03-03T16:14:22.641Z,44.04
2019-03-03T16:16:55.731Z,44.60
2019-03-03T16:19:28.807Z,46.11
2019-03-03T16:22:01.741Z,46.79
2019-03-03T16:24:34.829Z,46.08
2019-03-03T16:27:07.837Z,46.77
2019-03-03T16:29:40.953Z,48.71
2019-03-03T16:32:14.002Z,46.96
2019-03-03T16:34:47.178Z,47.14
2019-03-03T16:37:20.292Z,50.07
2019-03-03T16:39:53.443Z,47.88
2019-03-03T16:42:26.532Z,47.72
2019-03-03T16:44:59.588Z,49.76
2019-03-03T16:47:32.780Z,51.21
2019-03-03T16:50:06.278Z,51.93
2019-03-03T16:52:39.306Z,49.07
2019-03-03T16:55:12.879Z,53.04
2019-03-03T16:57:45.979Z,53.28
2019-03-03T17:00:21.347Z,53.25
2019-03-03T17:02:54.513Z,54.76
2019-03-03T17:05:27.695Z,54.67
2019-03-03T17:08:00.820Z,54.06
2019-03-03T17:10:33.992Z,55.12
2019-03-03T17:13:07.032Z,55.49
2019-03-03T17:15:40.111Z,56.50
2019-03-03T17:18:13.270Z,58.53
2019-03-03T17:20:46.332Z,59.19
2019-03-03T17:23:19.452Z,60.48
2019-03-03T17:25:52.619Z,61.04
2019-03-03T17:28:25.753Z,60.02
2019-03-03T17:30:58.781Z,60.57
2019-03-03T17:33:31.839Z,61.59
2019-03-03T17:36:04.832Z,62.63
2019-03-03T17:38:38.429Z,62.46
2019-03-03T17:41:13.599Z,63.32
2019-03-03T17:43:48.566Z,64.32
2019-03-03T17:46:21.174Z,64.83
2019-03-03T17:48:54.027Z,65.05
2019-03-03T17:51:26.974Z,65.79
2019-03-03T17:53:59.886Z,67.56
2019-03-03T17:56:32.823Z,68.12
2019-03-03T17:59:05.880Z,68.79
2019-03-03T18:01:38.757Z,69.36
2019-03-03T18:04:11.843Z,65.72
2019-03-03T18:06:44.738Z,65.28
2019-03-03T18:09:17.811Z,68.61
2019-03-03T18:11:50.717Z,68.68
2019-03-03T18:14:23.786Z,67.27
2019-03-03T18:16:56.785Z,67.88
2019-03-03T18:19:29.847Z,69.86
2019-03-03T18:22:02.813Z,70.59
2019-03-03T18:24:35.695Z,70.97
2019-03-03T18:27:08.339Z,71.57
2019-03-03T18:29:41.327Z,71.86
2019-03-03T18:32:14.369Z,71.69
2019-03-03T18:34:47.342Z,71.73
2019-03-03T18:37:20.251Z,70.89
2019-03-03T18:39:53.335Z,71.07
2019-03-03T18:42:26.396Z,70.91
2019-03-03T18:45:00.330Z,71.68
2019-03-03T18:47:33.238Z,71.49
2019-03-03T18:50:08.429Z,71.98
2019-03-03T18:52:41.433Z,70.93
2019-03-03T18:55:14.501Z,70.10
2019-03-03T18:57:47.551Z,69.67
2019-03-03T19:00:23.793Z,69.51
2019-03-03T19:02:58.262Z,70.05
2019-03-03T19:05:31.632Z,68.09
2019-03-03T19:08:04.720Z,68.21
2019-03-03T19:10:37.605Z,67.71
2019-03-03T19:13:10.588Z,65.58
2019-03-03T19:15:43.515Z,68.03
2019-03-03T19:18:16.573Z,67.16
2019-03-03T19:20:49.635Z,67.52
2019-03-03T19:23:22.493Z,65.09
2019-03-03T19:25:55.604Z,63.43
2019-03-03T19:28:28.517Z,61.92
2019-03-03T19:31:01.971Z,59.15
2019-03-03T19:33:49.144Z,56.44
2019-03-03T19:36:22.105Z,54.45
2019-03-03T19:38:55.128Z,57.09
2019-03-03T19:41:28.144Z,51.16
2019-03-03T19:44:01.197Z,52.83
2019-03-03T19:46:34.364Z,51.97
2019-03-03T19:49:07.527Z,50.53
2019-03-03T19:51:40.824Z,48.69
2019-03-03T19:54:13.964Z,48.23
2019-03-03T19:56:47.013Z,47.07
2019-03-03T19:59:20.129Z,45.80
2019-03-03T20:01:55.864Z,47.45
2019-03-03T20:04:28.912Z,49.78
2019-03-03T20:07:01.834Z,47.80
2019-03-03T20:09:34.843Z,49.58
2019-03-03T20:12:08.998Z,50.03
2019-03-03T20:14:41.901Z,47.86
2019-03-03T20:17:14.904Z,48.64
2019-03-03T20:19:47.814Z,47.69
2019-03-03T20:22:20.961Z,46.41
2019-03-03T20:24:54.016Z,40.08
2019-03-03T20:27:27.138Z,42.09
2019-03-03T20:30:00.402Z,42.60
2019-03-03T20:32:33.397Z,43.11
2019-03-03T20:35:06.726Z,44.75
2019-03-03T20:37:39.794Z,43.72
2019-03-03T20:40:15.058Z,47.28
2019-03-03T20:42:48.301Z,49.02
2019-03-03T20:45:23.483Z,47.56
2019-03-03T20:47:56.694Z,46.77
2019-03-03T20:50:29.939Z,40.21
2019-03-03T20:53:02.979Z,39.74
2019-03-03T20:55:36.043Z,42.18
2019-03-03T20:58:09.182Z,38.92
2019-03-03T21:00:42.196Z,43.17
2019-03-03T21:03:15.181Z,38.81
2019-03-03T21:05:48.109Z,41.25
2019-03-03T21:08:21.176Z,43.04
2019-03-03T21:10:54.092Z,43.97
2019-03-03T21:13:27.085Z,44.09
2019-03-03T21:16:00.248Z,42.21
2019-03-03T21:18:33.316Z,43.78
2019-03-03T21:21:06.222Z,42.86
2019-03-03T21:23:39.213Z,44.34
2019-03-03T21:26:12.229Z,42.67
2019-03-03T21:28:45.284Z,45.69
2019-03-03T21:31:18.595Z,44.81
2019-03-03T21:33:52.274Z,40.53
2019-03-03T21:36:25.229Z,38.90
2019-03-03T21:38:57.625Z,42.56
2019-03-03T21:41:30.638Z,45.31
2019-03-03T21:44:04.250Z,42.41
2019-03-03T21:46:37.203Z,40.49
2019-03-03T21:49:10.397Z,37.34
2019-03-03T21:51:45.402Z,36.27
2019-03-03T21:54:18.540Z,36.53
2019-03-03T21:56:51.611Z,34.34
2019-03-03T21:59:24.681Z,32.92
2019-03-03T22:01:57.702Z,33.51
2019-03-03T22:04:30.758Z,31.87
2019-03-03T22:07:02.879Z,30.80
2019-03-03T22:09:36.027Z,30.63
2019-03-03T22:12:08.990Z,31.48
2019-03-03T22:14:42.090Z,31.04
2019-03-03T22:17:15.483Z,31.93
2019-03-03T22:19:48.506Z,30.11
2019-03-03T22:22:21.436Z,31.49
2019-03-03T22:24:54.504Z,29.59
2019-03-03T22:27:30.611Z,29.60
2019-03-03T22:30:03.795Z,29.52
2019-03-03T22:32:36.656Z,29.01
2019-03-03T22:35:09.978Z,28.88
2019-03-03T22:37:42.966Z,28.29
2019-03-03T22:40:16.160Z,28.58
2019-03-03T22:42:49.186Z,28.49
2019-03-03T22:45:23.525Z,28.19
2019-03-03T22:47:56.586Z,30.55
2019-03-03T22:50:29.610Z,30.56
2019-03-03T22:53:02.687Z,30.53
2019-03-03T22:55:40.564Z,30.07
2019-03-03T22:58:13.779Z,30.34
2019-03-03T23:01:34.416Z,30.48
2019-03-03T23:04:46.482Z,29.95
2019-03-03T23:08:23.318Z,31.34
2019-03-03T23:11:39.804Z,30.83
2019-03-03T23:14:46.107Z,31.32
2019-03-03T23:18:25.513Z,30.75
2019-03-03T23:21:40.673Z,30.59
2019-03-03T23:24:41.816Z,30.58
2019-03-03T23:27:14.818Z,30.77
2019-03-03T23:29:47.802Z,29.64
2019-03-03T23:32:20.691Z,30.15
2019-03-03T23:34:53.639Z,28.96
2019-03-03T23:37:26.561Z,28.69
2019-03-03T23:39:59.531Z,27.50
2019-03-03T23:42:32.515Z,28.61
2019-03-03T23:45:06.489Z,27.74
2019-03-03T23:47:39.523Z,28.71
2019-03-03T23:50:12.837Z,28.33
2019-03-03T23:52:45.915Z,28.04
2019-03-03T23:55:18.892Z,27.62
2019-03-03T23:57:51.811Z,27.82
